sensor_id;sensor_type;location;lat;lon;timestamp;P1;durP1;ratioP1;P2;durP2;ratioP2
24897;SDS011;12957;49.434;8.684;2022-11-24T00:00:47;14.25;;;3.60;;
24897;SDS011;12957;49.434;8.684;2022-11-24T00:03:12;16.42;;;4.40;;
24897;SDS011;12957;49.434;8.684;2022-11-24T00:05:38;18.83;;;3.83;;
24897;SDS011;12957;49.434;8.684;2022-11-24T00:08:06;14.68;;;3.67;;
24897;SDS011;12957;49.434;8.684;2022-11-24T00:10:32;13.75;;;4.40;;
24897;SDS011;12957;49.434;8.684;2022-11-24T00:12:58;24.23;;;4.10;;
24897;SDS011;12957;49.434;8.684;2022-11-24T00:15:23;16.10;;;3.88;;
24897;SDS011;12957;49.434;8.684;2022-11-24T00:17:49;12.50;;;3.53;;
24897;SDS011;12957;49.434;8.684;2022-11-24T00:20:14;10.00;;;3.30;;
24897;SDS011;12957;49.434;8.684;2022-11-24T00:22:40;19.33;;;4.25;;
24897;SDS011;12957;49.434;8.684;2022-11-24T00:25:05;13.73;;;3.58;;
24897;SDS011;12957;49.434;8.684;2022-11-24T00:27:31;16.77;;;3.58;;
24897;SDS011;12957;49.434;8.684;2022-11-24T00:29:56;9.52;;;3.40;;
24897;SDS011;12957;49.434;8.684;2022-11-24T00:32:26;13.98;;;3.33;;
24897;SDS011;12957;49.434;8.684;2022-11-24T00:34:52;14.65;;;3.72;;
24897;SDS011;12957;49.434;8.684;2022-11-24T00:37:18;16.65;;;3.45;;
24897;SDS011;12957;49.434;8.684;2022-11-24T00:39:44;19.00;;;3.65;;
24897;SDS011;12957;49.434;8.684;2022-11-24T00:42:09;19.73;;;3.30;;
24897;SDS011;12957;49.434;8.684;2022-11-24T00:44:35;16.48;;;3.67;;
24897;SDS011;12957;49.434;8.684;2022-11-24T00:47:00;17.90;;;3.92;;
24897;SDS011;12957;49.434;8.684;2022-11-24T00:49:26;19.25;;;3.80;;
24897;SDS011;12957;49.434;8.684;2022-11-24T00:51:51;14.27;;;3.40;;
24897;SDS011;12957;49.434;8.684;2022-11-24T00:54:17;17.17;;;3.17;;
24897;SDS011;12957;49.434;8.684;2022-11-24T00:56:42;17.15;;;3.30;;
24897;SDS011;12957;49.434;8.684;2022-11-24T00:59:08;15.87;;;3.27;;
24897;SDS011;12957;49.434;8.684;2022-11-24T01:01:34;11.55;;;2.97;;
24897;SDS011;12957;49.434;8.684;2022-11-24T01:03:59;15.23;;;3.17;;
24897;SDS011;12957;49.434;8.684;2022-11-24T01:06:28;13.02;;;3.45;;
24897;SDS011;12957;49.434;8.684;2022-11-24T01:08:55;15.87;;;3.23;;
24897;SDS011;12957;49.434;8.684;2022-11-24T01:11:28;23.07;;;3.20;;
24897;SDS011;12957;49.434;8.684;2022-11-24T01:14:15;14.32;;;2.88;;
24897;SDS011;12957;49.434;8.684;2022-11-24T01:16:40;15.63;;;3.50;;
24897;SDS011;12957;49.434;8.684;2022-11-24T01:19:06;11.00;;;3.08;;
24897;SDS011;12957;49.434;8.684;2022-11-24T01:21:31;13.00;;;3.08;;
24897;SDS011;12957;49.434;8.684;2022-11-24T01:23:57;18.45;;;3.33;;
24897;SDS011;12957;49.434;8.684;2022-11-24T01:26:22;17.80;;;4.60;;
24897;SDS011;12957;49.434;8.684;2022-11-24T01:28:52;14.27;;;3.70;;
24897;SDS011;12957;49.434;8.684;2022-11-24T01:31:18;16.15;;;3.47;;
24897;SDS011;12957;49.434;8.684;2022-11-24T01:33:44;14.73;;;3.53;;
24897;SDS011;12957;49.434;8.684;2022-11-24T01:36:09;14.27;;;3.30;;
24897;SDS011;12957;49.434;8.684;2022-11-24T01:38:35;12.00;;;2.78;;
24897;SDS011;12957;49.434;8.684;2022-11-24T01:43:26;11.70;;;3.58;;
24897;SDS011;12957;49.434;8.684;2022-11-24T01:45:52;17.58;;;3.65;;
24897;SDS011;12957;49.434;8.684;2022-11-24T01:48:19;14.80;;;2.70;;
24897;SDS011;12957;49.434;8.684;2022-11-24T01:50:50;14.18;;;2.83;;
24897;SDS011;12957;49.434;8.684;2022-11-24T01:53:18;9.25;;;2.95;;
24897;SDS011;12957;49.434;8.684;2022-11-24T01:55:44;7.03;;;2.70;;
24897;SDS011;12957;49.434;8.684;2022-11-24T01:58:12;10.77;;;2.78;;
24897;SDS011;12957;49.434;8.684;2022-11-24T02:00:40;11.52;;;2.78;;
24897;SDS011;12957;49.434;8.684;2022-11-24T02:03:06;15.77;;;2.83;;
24897;SDS011;12957;49.434;8.684;2022-11-24T02:08:44;12.15;;;2.88;;
24897;SDS011;12957;49.434;8.684;2022-11-24T02:11:13;15.00;;;2.72;;
24897;SDS011;12957;49.434;8.684;2022-11-24T02:13:38;13.73;;;2.53;;
24897;SDS011;12957;49.434;8.684;2022-11-24T02:16:09;9.30;;;2.58;;
24897;SDS011;12957;49.434;8.684;2022-11-24T02:18:36;25.95;;;3.55;;
24897;SDS011;12957;49.434;8.684;2022-11-24T02:21:02;14.82;;;3.33;;
24897;SDS011;12957;49.434;8.684;2022-11-24T02:26:03;15.17;;;3.63;;
24897;SDS011;12957;49.434;8.684;2022-11-24T02:28:42;15.13;;;3.00;;
24897;SDS011;12957;49.434;8.684;2022-11-24T02:31:07;19.38;;;2.72;;
24897;SDS011;12957;49.434;8.684;2022-11-24T02:33:33;14.63;;;2.85;;
24897;SDS011;12957;49.434;8.684;2022-11-24T02:35:59;15.20;;;2.73;;
24897;SDS011;12957;49.434;8.684;2022-11-24T02:38:29;11.70;;;2.70;;
24897;SDS011;12957;49.434;8.684;2022-11-24T02:40:55;13.67;;;3.10;;
24897;SDS011;12957;49.434;8.684;2022-11-24T02:43:21;14.85;;;3.08;;
24897;SDS011;12957;49.434;8.684;2022-11-24T02:45:47;11.53;;;3.53;;
24897;SDS011;12957;49.434;8.684;2022-11-24T02:48:13;10.25;;;2.70;;
24897;SDS011;12957;49.434;8.684;2022-11-24T02:50:39;18.40;;;3.38;;
24897;SDS011;12957;49.434;8.684;2022-11-24T02:53:05;16.00;;;2.90;;
24897;SDS011;12957;49.434;8.684;2022-11-24T02:55:32;12.47;;;2.77;;
24897;SDS011;12957;49.434;8.684;2022-11-24T02:57:57;19.37;;;3.20;;
24897;SDS011;12957;49.434;8.684;2022-11-24T03:00:23;24.20;;;3.50;;
24897;SDS011;12957;49.434;8.684;2022-11-24T03:02:48;13.57;;;3.47;;
24897;SDS011;12957;49.434;8.684;2022-11-24T03:05:14;14.32;;;4.03;;
24897;SDS011;12957;49.434;8.684;2022-11-24T03:07:39;17.58;;;3.13;;
24897;SDS011;12957;49.434;8.684;2022-11-24T03:10:05;14.67;;;3.03;;
24897;SDS011;12957;49.434;8.684;2022-11-24T03:12:30;12.38;;;3.28;;
24897;SDS011;12957;49.434;8.684;2022-11-24T03:14:56;15.47;;;4.20;;
24897;SDS011;12957;49.434;8.684;2022-11-24T03:17:21;13.10;;;2.72;;
24897;SDS011;12957;49.434;8.684;2022-11-24T03:19:47;16.00;;;3.03;;
24897;SDS011;12957;49.434;8.684;2022-11-24T03:22:13;13.98;;;3.03;;
24897;SDS011;12957;49.434;8.684;2022-11-24T03:24:39;17.33;;;3.10;;
24897;SDS011;12957;49.434;8.684;2022-11-24T03:27:04;17.30;;;3.03;;
24897;SDS011;12957;49.434;8.684;2022-11-24T03:29:30;16.80;;;2.83;;
24897;SDS011;12957;49.434;8.684;2022-11-24T03:31:55;11.32;;;2.60;;
24897;SDS011;12957;49.434;8.684;2022-11-24T03:34:21;24.45;;;3.80;;
24897;SDS011;12957;49.434;8.684;2022-11-24T03:36:46;12.53;;;2.63;;
24897;SDS011;12957;49.434;8.684;2022-11-24T03:39:12;9.98;;;2.70;;
24897;SDS011;12957;49.434;8.684;2022-11-24T03:41:38;11.45;;;3.17;;
24897;SDS011;12957;49.434;8.684;2022-11-24T03:44:03;17.40;;;2.85;;
24897;SDS011;12957;49.434;8.684;2022-11-24T03:46:29;20.55;;;3.20;;
24897;SDS011;12957;49.434;8.684;2022-11-24T03:48:54;17.83;;;2.97;;
24897;SDS011;12957;49.434;8.684;2022-11-24T03:51:20;6.95;;;2.38;;
24897;SDS011;12957;49.434;8.684;2022-11-24T03:53:45;12.73;;;2.50;;
24897;SDS011;12957;49.434;8.684;2022-11-24T03:56:11;20.42;;;3.22;;
24897;SDS011;12957;49.434;8.684;2022-11-24T03:58:37;16.58;;;2.88;;
24897;SDS011;12957;49.434;8.684;2022-11-24T04:01:02;11.82;;;2.70;;
24897;SDS011;12957;49.434;8.684;2022-11-24T04:03:28;25.88;;;3.17;;
24897;SDS011;12957;49.434;8.684;2022-11-24T04:05:54;21.25;;;3.05;;
24897;SDS011;12957;49.434;8.684;2022-11-24T04:08:19;18.05;;;2.75;;
24897;SDS011;12957;49.434;8.684;2022-11-24T04:10:48;12.40;;;2.72;;
24897;SDS011;12957;49.434;8.684;2022-11-24T04:13:14;16.48;;;2.65;;
24897;SDS011;12957;49.434;8.684;2022-11-24T04:15:41;19.05;;;3.65;;
24897;SDS011;12957;49.434;8.684;2022-11-24T04:18:07;14.50;;;3.10;;
24897;SDS011;12957;49.434;8.684;2022-11-24T04:20:33;16.00;;;2.83;;
24897;SDS011;12957;49.434;8.684;2022-11-24T04:22:59;11.80;;;2.95;;
24897;SDS011;12957;49.434;8.684;2022-11-24T04:25:24;18.33;;;2.90;;
24897;SDS011;12957;49.434;8.684;2022-11-24T04:27:50;14.43;;;3.08;;
24897;SDS011;12957;49.434;8.684;2022-11-24T04:30:17;17.73;;;2.80;;
24897;SDS011;12957;49.434;8.684;2022-11-24T04:32:43;20.15;;;3.22;;
24897;SDS011;12957;49.434;8.684;2022-11-24T04:35:08;13.35;;;2.45;;
24897;SDS011;12957;49.434;8.684;2022-11-24T04:37:34;12.00;;;2.60;;
24897;SDS011;12957;49.434;8.684;2022-11-24T04:39:59;13.52;;;3.05;;
24897;SDS011;12957;49.434;8.684;2022-11-24T04:42:25;16.88;;;3.42;;
24897;SDS011;12957;49.434;8.684;2022-11-24T04:44:50;15.20;;;2.63;;
24897;SDS011;12957;49.434;8.684;2022-11-24T04:47:17;20.52;;;3.40;;
24897;SDS011;12957;49.434;8.684;2022-11-24T04:49:45;16.80;;;3.20;;
24897;SDS011;12957;49.434;8.684;2022-11-24T04:52:11;15.32;;;3.17;;
24897;SDS011;12957;49.434;8.684;2022-11-24T04:54:36;21.10;;;3.15;;
24897;SDS011;12957;49.434;8.684;2022-11-24T04:57:02;15.05;;;2.90;;
24897;SDS011;12957;49.434;8.684;2022-11-24T04:59:27;17.05;;;2.92;;
24897;SDS011;12957;49.434;8.684;2022-11-24T05:01:53;21.13;;;3.55;;
24897;SDS011;12957;49.434;8.684;2022-11-24T05:04:18;15.02;;;2.50;;
24897;SDS011;12957;49.434;8.684;2022-11-24T05:06:45;18.90;;;3.00;;
24897;SDS011;12957;49.434;8.684;2022-11-24T05:09:12;13.20;;;3.10;;
24897;SDS011;12957;49.434;8.684;2022-11-24T05:11:39;13.93;;;3.17;;
24897;SDS011;12957;49.434;8.684;2022-11-24T05:14:05;21.25;;;3.17;;
24897;SDS011;12957;49.434;8.684;2022-11-24T05:16:32;17.67;;;2.55;;
24897;SDS011;12957;49.434;8.684;2022-11-24T05:18:57;14.95;;;3.38;;
24897;SDS011;12957;49.434;8.684;2022-11-24T05:21:23;22.02;;;2.80;;
24897;SDS011;12957;49.434;8.684;2022-11-24T05:23:48;16.58;;;2.80;;
24897;SDS011;12957;49.434;8.684;2022-11-24T05:26:14;12.00;;;2.88;;
24897;SDS011;12957;49.434;8.684;2022-11-24T05:28:39;15.18;;;3.00;;
24897;SDS011;12957;49.434;8.684;2022-11-24T05:31:05;15.77;;;3.55;;
24897;SDS011;12957;49.434;8.684;2022-11-24T05:33:30;20.48;;;2.90;;
24897;SDS011;12957;49.434;8.684;2022-11-24T05:36:01;15.57;;;2.92;;
24897;SDS011;12957;49.434;8.684;2022-11-24T05:38:27;18.08;;;3.53;;
24897;SDS011;12957;49.434;8.684;2022-11-24T05:40:54;20.70;;;3.67;;
24897;SDS011;12957;49.434;8.684;2022-11-24T05:43:23;12.90;;;2.90;;
24897;SDS011;12957;49.434;8.684;2022-11-24T05:45:49;19.35;;;3.08;;
24897;SDS011;12957;49.434;8.684;2022-11-24T05:48:15;21.35;;;3.63;;
24897;SDS011;12957;49.434;8.684;2022-11-24T05:50:40;16.25;;;2.92;;
24897;SDS011;12957;49.434;8.684;2022-11-24T05:53:07;18.58;;;3.65;;
24897;SDS011;12957;49.434;8.684;2022-11-24T05:55:33;17.98;;;4.00;;
24897;SDS011;12957;49.434;8.684;2022-11-24T05:58:00;16.67;;;2.80;;
24897;SDS011;12957;49.434;8.684;2022-11-24T06:00:26;18.77;;;3.05;;
24897;SDS011;12957;49.434;8.684;2022-11-24T06:02:52;17.13;;;2.78;;
24897;SDS011;12957;49.434;8.684;2022-11-24T06:05:18;18.13;;;3.17;;
24897;SDS011;12957;49.434;8.684;2022-11-24T06:07:43;16.58;;;2.97;;
24897;SDS011;12957;49.434;8.684;2022-11-24T06:10:09;14.32;;;3.75;;
24897;SDS011;12957;49.434;8.684;2022-11-24T06:12:34;24.23;;;3.65;;
24897;SDS011;12957;49.434;8.684;2022-11-24T06:15:00;22.17;;;3.10;;
24897;SDS011;12957;49.434;8.684;2022-11-24T06:17:26;22.40;;;3.42;;
24897;SDS011;12957;49.434;8.684;2022-11-24T06:19:51;14.05;;;2.92;;
24897;SDS011;12957;49.434;8.684;2022-11-24T06:22:17;19.10;;;3.75;;
24897;SDS011;12957;49.434;8.684;2022-11-24T06:24:43;15.18;;;3.22;;
24897;SDS011;12957;49.434;8.684;2022-11-24T06:27:10;15.05;;;3.22;;
24897;SDS011;12957;49.434;8.684;2022-11-24T06:29:36;22.45;;;3.10;;
24897;SDS011;12957;49.434;8.684;2022-11-24T06:32:02;12.10;;;2.95;;
24897;SDS011;12957;49.434;8.684;2022-11-24T06:34:28;17.17;;;3.03;;
24897;SDS011;12957;49.434;8.684;2022-11-24T06:36:53;18.73;;;3.55;;
24897;SDS011;12957;49.434;8.684;2022-11-24T06:39:19;20.33;;;2.90;;
24897;SDS011;12957;49.434;8.684;2022-11-24T06:41:44;14.48;;;3.28;;
24897;SDS011;12957;49.434;8.684;2022-11-24T06:44:10;17.90;;;2.90;;
24897;SDS011;12957;49.434;8.684;2022-11-24T06:46:36;14.48;;;3.33;;
24897;SDS011;12957;49.434;8.684;2022-11-24T06:49:01;18.95;;;3.20;;
24897;SDS011;12957;49.434;8.684;2022-11-24T06:51:27;18.48;;;3.08;;
24897;SDS011;12957;49.434;8.684;2022-11-24T06:53:52;20.40;;;3.30;;
24897;SDS011;12957;49.434;8.684;2022-11-24T06:56:18;17.13;;;3.33;;
24897;SDS011;12957;49.434;8.684;2022-11-24T06:58:45;15.35;;;3.10;;
24897;SDS011;12957;49.434;8.684;2022-11-24T07:01:19;19.85;;;3.08;;
24897;SDS011;12957;49.434;8.684;2022-11-24T07:03:46;21.00;;;3.13;;
24897;SDS011;12957;49.434;8.684;2022-11-24T07:06:12;15.65;;;2.90;;
24897;SDS011;12957;49.434;8.684;2022-11-24T07:08:38;20.45;;;3.33;;
24897;SDS011;12957;49.434;8.684;2022-11-24T07:11:04;16.33;;;3.33;;
24897;SDS011;12957;49.434;8.684;2022-11-24T07:13:33;13.80;;;2.92;;
24897;SDS011;12957;49.434;8.684;2022-11-24T07:15:59;16.85;;;3.15;;
24897;SDS011;12957;49.434;8.684;2022-11-24T07:18:25;16.75;;;3.25;;
24897;SDS011;12957;49.434;8.684;2022-11-24T07:20:50;19.30;;;4.00;;
24897;SDS011;12957;49.434;8.684;2022-11-24T07:23:16;16.23;;;3.60;;
24897;SDS011;12957;49.434;8.684;2022-11-24T07:25:41;18.48;;;4.28;;
24897;SDS011;12957;49.434;8.684;2022-11-24T07:28:07;13.10;;;3.45;;
24897;SDS011;12957;49.434;8.684;2022-11-24T07:30:32;19.17;;;6.50;;
24897;SDS011;12957;49.434;8.684;2022-11-24T07:32:58;12.93;;;3.27;;
24897;SDS011;12957;49.434;8.684;2022-11-24T07:35:24;12.27;;;3.08;;
24897;SDS011;12957;49.434;8.684;2022-11-24T07:37:52;14.57;;;3.63;;
24897;SDS011;12957;49.434;8.684;2022-11-24T07:40:21;14.77;;;3.67;;
24897;SDS011;12957;49.434;8.684;2022-11-24T07:42:47;12.23;;;3.30;;
24897;SDS011;12957;49.434;8.684;2022-11-24T07:45:12;19.13;;;3.42;;
24897;SDS011;12957;49.434;8.684;2022-11-24T07:47:38;9.82;;;2.47;;
24897;SDS011;12957;49.434;8.684;2022-11-24T07:50:05;14.35;;;3.40;;
24897;SDS011;12957;49.434;8.684;2022-11-24T07:52:33;13.65;;;3.20;;
24897;SDS011;12957;49.434;8.684;2022-11-24T07:54:59;20.00;;;3.22;;
24897;SDS011;12957;49.434;8.684;2022-11-24T07:57:24;18.15;;;3.90;;
24897;SDS011;12957;49.434;8.684;2022-11-24T07:59:50;19.90;;;3.55;;
24897;SDS011;12957;49.434;8.684;2022-11-24T08:02:15;14.63;;;3.40;;
24897;SDS011;12957;49.434;8.684;2022-11-24T08:04:41;15.32;;;3.08;;
24897;SDS011;12957;49.434;8.684;2022-11-24T08:07:06;19.70;;;3.05;;
24897;SDS011;12957;49.434;8.684;2022-11-24T08:09:32;23.83;;;3.70;;
24897;SDS011;12957;49.434;8.684;2022-11-24T08:11:57;15.40;;;3.83;;
24897;SDS011;12957;49.434;8.684;2022-11-24T08:14:23;22.58;;;3.40;;
24897;SDS011;12957;49.434;8.684;2022-11-24T08:16:48;13.25;;;2.90;;
24897;SDS011;12957;49.434;8.684;2022-11-24T08:19:14;16.65;;;3.33;;
24897;SDS011;12957;49.434;8.684;2022-11-24T08:21:39;12.80;;;2.75;;
24897;SDS011;12957;49.434;8.684;2022-11-24T08:24:05;15.35;;;3.30;;
24897;SDS011;12957;49.434;8.684;2022-11-24T08:26:31;17.40;;;3.08;;
24897;SDS011;12957;49.434;8.684;2022-11-24T08:28:56;11.90;;;2.63;;
24897;SDS011;12957;49.434;8.684;2022-11-24T08:31:23;21.30;;;3.38;;
24897;SDS011;12957;49.434;8.684;2022-11-24T08:33:51;15.82;;;2.78;;
24897;SDS011;12957;49.434;8.684;2022-11-24T08:36:21;13.23;;;3.20;;
24897;SDS011;12957;49.434;8.684;2022-11-24T08:38:47;17.15;;;3.00;;
24897;SDS011;12957;49.434;8.684;2022-11-24T08:41:14;11.73;;;2.70;;
24897;SDS011;12957;49.434;8.684;2022-11-24T08:43:40;9.35;;;2.67;;
24897;SDS011;12957;49.434;8.684;2022-11-24T08:46:07;15.23;;;2.75;;
24897;SDS011;12957;49.434;8.684;2022-11-24T08:48:33;13.05;;;2.50;;
24897;SDS011;12957;49.434;8.684;2022-11-24T08:51:05;8.88;;;2.53;;
24897;SDS011;12957;49.434;8.684;2022-11-24T08:53:31;13.02;;;2.42;;
24897;SDS011;12957;49.434;8.684;2022-11-24T08:56:00;10.77;;;2.78;;
24897;SDS011;12957;49.434;8.684;2022-11-24T08:58:26;13.75;;;2.85;;
24897;SDS011;12957;49.434;8.684;2022-11-24T09:00:52;13.68;;;2.40;;
24897;SDS011;12957;49.434;8.684;2022-11-24T09:03:17;12.77;;;2.45;;
24897;SDS011;12957;49.434;8.684;2022-11-24T09:05:43;17.27;;;2.55;;
24897;SDS011;12957;49.434;8.684;2022-11-24T09:08:08;13.15;;;2.25;;
24897;SDS011;12957;49.434;8.684;2022-11-24T09:10:34;10.23;;;2.50;;
24897;SDS011;12957;49.434;8.684;2022-11-24T09:12:59;11.27;;;3.00;;
24897;SDS011;12957;49.434;8.684;2022-11-24T09:15:25;8.32;;;2.17;;
24897;SDS011;12957;49.434;8.684;2022-11-24T09:17:50;10.57;;;2.10;;
24897;SDS011;12957;49.434;8.684;2022-11-24T09:20:16;8.00;;;2.20;;
24897;SDS011;12957;49.434;8.684;2022-11-24T09:22:41;10.88;;;2.65;;
24897;SDS011;12957;49.434;8.684;2022-11-24T09:25:07;10.10;;;2.22;;
24897;SDS011;12957;49.434;8.684;2022-11-24T09:27:33;10.73;;;2.30;;
24897;SDS011;12957;49.434;8.684;2022-11-24T09:29:59;10.73;;;2.65;;
24897;SDS011;12957;49.434;8.684;2022-11-24T09:32:24;7.85;;;2.60;;
24897;SDS011;12957;49.434;8.684;2022-11-24T09:34:50;8.73;;;2.17;;
24897;SDS011;12957;49.434;8.684;2022-11-24T09:37:16;7.53;;;2.00;;
24897;SDS011;12957;49.434;8.684;2022-11-24T09:39:42;9.45;;;2.15;;
24897;SDS011;12957;49.434;8.684;2022-11-24T09:42:11;5.57;;;2.53;;
24897;SDS011;12957;49.434;8.684;2022-11-24T09:52:27;7.20;;;2.08;;
24897;SDS011;12957;49.434;8.684;2022-11-24T09:55:33;6.38;;;1.67;;
24897;SDS011;12957;49.434;8.684;2022-11-24T10:00:47;10.50;;;1.88;;
24897;SDS011;12957;49.434;8.684;2022-11-24T10:03:24;7.38;;;2.10;;
24897;SDS011;12957;49.434;8.684;2022-11-24T10:05:51;4.68;;;1.90;;
24897;SDS011;12957;49.434;8.684;2022-11-24T10:08:30;7.15;;;2.17;;
24897;SDS011;12957;49.434;8.684;2022-11-24T10:11:14;5.25;;;1.75;;
24897;SDS011;12957;49.434;8.684;2022-11-24T10:13:58;3.95;;;1.63;;
24897;SDS011;12957;49.434;8.684;2022-11-24T10:16:42;2.70;;;1.40;;
24897;SDS011;12957;49.434;8.684;2022-11-24T10:22:06;7.97;;;1.80;;
24897;SDS011;12957;49.434;8.684;2022-11-24T10:25:01;10.18;;;1.98;;
24897;SDS011;12957;49.434;8.684;2022-11-24T10:27:36;5.85;;;1.90;;
24897;SDS011;12957;49.434;8.684;2022-11-24T10:30:11;6.68;;;2.00;;
24897;SDS011;12957;49.434;8.684;2022-11-24T10:32:39;5.72;;;1.50;;
24897;SDS011;12957;49.434;8.684;2022-11-24T10:35:27;10.13;;;1.55;;
24897;SDS011;12957;49.434;8.684;2022-11-24T10:40:32;6.03;;;1.92;;
24897;SDS011;12957;49.434;8.684;2022-11-24T10:43:08;6.68;;;1.50;;
24897;SDS011;12957;49.434;8.684;2022-11-24T10:45:34;6.57;;;2.30;;
24897;SDS011;12957;49.434;8.684;2022-11-24T10:48:01;4.05;;;1.90;;
24897;SDS011;12957;49.434;8.684;2022-11-24T10:50:31;5.80;;;1.95;;
24897;SDS011;12957;49.434;8.684;2022-11-24T10:53:12;6.28;;;1.77;;
24897;SDS011;12957;49.434;8.684;2022-11-24T10:58:26;8.63;;;1.90;;
24897;SDS011;12957;49.434;8.684;2022-11-24T11:00:52;6.15;;;1.67;;
24897;SDS011;12957;49.434;8.684;2022-11-24T11:03:19;5.30;;;1.83;;
24897;SDS011;12957;49.434;8.684;2022-11-24T11:05:47;6.32;;;2.05;;
24897;SDS011;12957;49.434;8.684;2022-11-24T11:08:23;7.45;;;1.85;;
24897;SDS011;12957;49.434;8.684;2022-11-24T11:10:50;7.22;;;2.05;;
24897;SDS011;12957;49.434;8.684;2022-11-24T11:13:28;5.65;;;1.70;;
24897;SDS011;12957;49.434;8.684;2022-11-24T11:15:55;6.18;;;2.20;;
24897;SDS011;12957;49.434;8.684;2022-11-24T11:18:21;9.18;;;2.00;;
24897;SDS011;12957;49.434;8.684;2022-11-24T11:20:55;6.28;;;1.92;;
24897;SDS011;12957;49.434;8.684;2022-11-24T11:23:23;4.88;;;1.73;;
24897;SDS011;12957;49.434;8.684;2022-11-24T11:25:53;6.70;;;1.73;;
24897;SDS011;12957;49.434;8.684;2022-11-24T11:31:24;8.48;;;1.90;;
24897;SDS011;12957;49.434;8.684;2022-11-24T11:36:34;4.82;;;1.52;;
24897;SDS011;12957;49.434;8.684;2022-11-24T11:39:01;4.70;;;1.58;;
24897;SDS011;12957;49.434;8.684;2022-11-24T11:41:29;4.53;;;1.67;;
24897;SDS011;12957;49.434;8.684;2022-11-24T11:44:03;10.35;;;1.88;;
24897;SDS011;12957;49.434;8.684;2022-11-24T11:46:41;9.02;;;1.90;;
24897;SDS011;12957;49.434;8.684;2022-11-24T11:49:08;4.93;;;1.67;;
24897;SDS011;12957;49.434;8.684;2022-11-24T11:57:45;4.70;;;2.22;;
24897;SDS011;12957;49.434;8.684;2022-11-24T12:00:19;3.90;;;1.60;;
24897;SDS011;12957;49.434;8.684;2022-11-24T12:03:07;6.22;;;2.28;;
24897;SDS011;12957;49.434;8.684;2022-11-24T12:05:46;6.63;;;1.98;;
24897;SDS011;12957;49.434;8.684;2022-11-24T12:16:33;8.63;;;2.00;;
24897;SDS011;12957;49.434;8.684;2022-11-24T12:22:05;8.60;;;1.90;;
24897;SDS011;12957;49.434;8.684;2022-11-24T12:24:45;7.40;;;1.88;;
24897;SDS011;12957;49.434;8.684;2022-11-24T12:30:41;11.70;;;1.92;;
24897;SDS011;12957;49.434;8.684;2022-11-24T12:36:25;10.15;;;2.33;;
24897;SDS011;12957;49.434;8.684;2022-11-24T12:39:21;6.53;;;2.15;;
24897;SDS011;12957;49.434;8.684;2022-11-24T12:44:41;7.95;;;2.20;;
24897;SDS011;12957;49.434;8.684;2022-11-24T12:47:12;12.40;;;1.90;;
24897;SDS011;12957;49.434;8.684;2022-11-24T12:52:24;8.68;;;2.08;;
24897;SDS011;12957;49.434;8.684;2022-11-24T12:54:50;6.03;;;1.83;;
24897;SDS011;12957;49.434;8.684;2022-11-24T13:00:00;8.73;;;2.05;;
24897;SDS011;12957;49.434;8.684;2022-11-24T13:08:07;10.02;;;2.00;;
24897;SDS011;12957;49.434;8.684;2022-11-24T13:10:37;11.23;;;2.33;;
24897;SDS011;12957;49.434;8.684;2022-11-24T13:23:56;5.97;;;2.08;;
24897;SDS011;12957;49.434;8.684;2022-11-24T13:26:30;8.02;;;2.17;;
24897;SDS011;12957;49.434;8.684;2022-11-24T13:29:50;6.07;;;2.10;;
24897;SDS011;12957;49.434;8.684;2022-11-24T13:37:03;6.40;;;2.28;;
24897;SDS011;12957;49.434;8.684;2022-11-24T13:39:46;10.15;;;2.28;;
24897;SDS011;12957;49.434;8.684;2022-11-24T13:42:14;12.50;;;2.50;;
24897;SDS011;12957;49.434;8.684;2022-11-24T13:44:47;8.75;;;2.17;;
24897;SDS011;12957;49.434;8.684;2022-11-24T13:47:42;10.68;;;2.53;;
24897;SDS011;12957;49.434;8.684;2022-11-24T13:50:12;11.25;;;2.30;;
24897;SDS011;12957;49.434;8.684;2022-11-24T13:52:47;10.10;;;2.40;;
24897;SDS011;12957;49.434;8.684;2022-11-24T14:06:12;12.05;;;2.50;;
24897;SDS011;12957;49.434;8.684;2022-11-24T14:08:51;13.30;;;2.35;;
24897;SDS011;12957;49.434;8.684;2022-11-24T14:11:17;7.55;;;2.25;;
24897;SDS011;12957;49.434;8.684;2022-11-24T14:13:43;12.68;;;2.35;;
24897;SDS011;12957;49.434;8.684;2022-11-24T14:18:35;12.38;;;2.42;;
24897;SDS011;12957;49.434;8.684;2022-11-24T14:21:23;13.02;;;2.40;;
24897;SDS011;12957;49.434;8.684;2022-11-24T14:23:52;10.98;;;2.38;;
24897;SDS011;12957;49.434;8.684;2022-11-24T14:28:46;8.43;;;2.53;;
24897;SDS011;12957;49.434;8.684;2022-11-24T14:31:22;11.50;;;3.00;;
24897;SDS011;12957;49.434;8.684;2022-11-24T14:33:49;9.70;;;2.50;;
24897;SDS011;12957;49.434;8.684;2022-11-24T14:36:16;6.47;;;2.25;;
24897;SDS011;12957;49.434;8.684;2022-11-24T14:38:41;6.05;;;2.08;;
24897;SDS011;12957;49.434;8.684;2022-11-24T14:41:14;6.75;;;2.03;;
24897;SDS011;12957;49.434;8.684;2022-11-24T14:43:46;9.05;;;2.42;;
24897;SDS011;12957;49.434;8.684;2022-11-24T14:46:16;11.57;;;2.40;;
24897;SDS011;12957;49.434;8.684;2022-11-24T14:48:49;9.55;;;2.20;;
24897;SDS011;12957;49.434;8.684;2022-11-24T14:51:22;7.30;;;1.75;;
24897;SDS011;12957;49.434;8.684;2022-11-24T14:53:52;6.05;;;1.85;;
24897;SDS011;12957;49.434;8.684;2022-11-24T14:58:52;10.18;;;2.10;;
24897;SDS011;12957;49.434;8.684;2022-11-24T15:01:19;6.32;;;2.05;;
24897;SDS011;12957;49.434;8.684;2022-11-24T15:03:55;16.38;;;2.45;;
24897;SDS011;12957;49.434;8.684;2022-11-24T15:06:45;8.13;;;2.35;;
24897;SDS011;12957;49.434;8.684;2022-11-24T15:09:19;11.60;;;2.33;;
24897;SDS011;12957;49.434;8.684;2022-11-24T15:11:51;9.30;;;2.33;;
24897;SDS011;12957;49.434;8.684;2022-11-24T15:14:25;6.03;;;2.40;;
24897;SDS011;12957;49.434;8.684;2022-11-24T15:16:55;6.68;;;2.40;;
24897;SDS011;12957;49.434;8.684;2022-11-24T15:19:20;7.47;;;2.47;;
24897;SDS011;12957;49.434;8.684;2022-11-24T15:21:50;11.15;;;2.17;;
24897;SDS011;12957;49.434;8.684;2022-11-24T15:24:19;6.35;;;2.10;;
24897;SDS011;12957;49.434;8.684;2022-11-24T15:26:45;13.70;;;3.03;;
24897;SDS011;12957;49.434;8.684;2022-11-24T15:29:10;17.08;;;2.55;;
24897;SDS011;12957;49.434;8.684;2022-11-24T15:31:37;10.25;;;2.67;;
24897;SDS011;12957;49.434;8.684;2022-11-24T15:34:02;8.05;;;2.40;;
24897;SDS011;12957;49.434;8.684;2022-11-24T15:36:28;10.57;;;2.42;;
24897;SDS011;12957;49.434;8.684;2022-11-24T15:38:53;9.98;;;2.40;;
24897;SDS011;12957;49.434;8.684;2022-11-24T15:41:19;7.65;;;2.60;;
24897;SDS011;12957;49.434;8.684;2022-11-24T15:43:46;11.05;;;2.80;;
24897;SDS011;12957;49.434;8.684;2022-11-24T15:46:11;9.48;;;2.70;;
24897;SDS011;12957;49.434;8.684;2022-11-24T15:48:37;14.77;;;2.60;;
24897;SDS011;12957;49.434;8.684;2022-11-24T15:51:03;8.32;;;2.65;;
24897;SDS011;12957;49.434;8.684;2022-11-24T15:53:35;10.65;;;3.03;;
24897;SDS011;12957;49.434;8.684;2022-11-24T15:56:03;14.38;;;2.95;;
24897;SDS011;12957;49.434;8.684;2022-11-24T15:58:31;10.98;;;2.47;;
24897;SDS011;12957;49.434;8.684;2022-11-24T16:00:57;11.07;;;3.00;;
24897;SDS011;12957;49.434;8.684;2022-11-24T16:03:22;9.13;;;2.70;;
24897;SDS011;12957;49.434;8.684;2022-11-24T16:05:48;16.23;;;2.85;;
24897;SDS011;12957;49.434;8.684;2022-11-24T16:08:15;12.30;;;3.13;;
24897;SDS011;12957;49.434;8.684;2022-11-24T16:10:41;11.65;;;3.13;;
24897;SDS011;12957;49.434;8.684;2022-11-24T16:13:07;6.20;;;2.88;;
24897;SDS011;12957;49.434;8.684;2022-11-24T16:15:33;13.23;;;2.55;;
24897;SDS011;12957;49.434;8.684;2022-11-24T16:17:58;16.63;;;2.85;;
24897;SDS011;12957;49.434;8.684;2022-11-24T16:20:24;15.48;;;3.00;;
24897;SDS011;12957;49.434;8.684;2022-11-24T16:22:49;12.93;;;2.60;;
24897;SDS011;12957;49.434;8.684;2022-11-24T16:25:15;12.23;;;2.75;;
24897;SDS011;12957;49.434;8.684;2022-11-24T16:27:41;9.80;;;2.60;;